Terminal Aerodrome Forecast
Issued by NWS

Home | Current Version | Previous Version | Text Only | Print | Product List | Glossary On
Versions: 1 2 3 4 5 6 7 8 9 10 11 12 13 14 15 16 17 18 19 20 21 22 23 24 25 26 27 28 29
000
FTUS42 KCAE 240200 AAA
TAFOGB
TAF AMD
KOGB 240233Z 2403/2424 VRB03KT P6SM SCT100
     FM240900 00000KT 4SM BR SCT010 BKN035
     FM241300 25007KT P6SM SCT040 SCT250
     FM242000 26010G15KT P6SM VCSH SCT040 BKN100=

USA.gov is the U.S. government's official web portal to all federal, state and local government web resources and services.